createdAt,value
2018-07-28T00:00:06.772Z,7.50
2018-07-28T00:01:06.762Z,6.70
2018-07-28T00:02:06.755Z,6.50
2018-07-28T00:03:06.743Z,7.40
2018-07-28T00:04:06.734Z,7.60
2018-07-28T00:05:06.725Z,6.90
2018-07-28T00:06:06.715Z,8.00
2018-07-28T00:07:06.714Z,9.00
2018-07-28T00:08:06.696Z,8.50
2018-07-28T00:09:06.687Z,6.30
2018-07-28T00:10:06.685Z,7.50
2018-07-28T00:11:06.667Z,7.50
2018-07-28T00:12:06.672Z,6.30
2018-07-28T00:13:06.650Z,7.00
2018-07-28T00:14:06.639Z,8.10
2018-07-28T00:15:06.635Z,7.50
2018-07-28T00:16:06.622Z,6.40
2018-07-28T00:17:06.608Z,7.00
2018-07-28T00:18:06.602Z,6.80
2018-07-28T00:19:06.601Z,7.30
2018-07-28T00:20:06.582Z,6.70
2018-07-28T00:21:06.572Z,6.90
2018-07-28T00:22:06.563Z,7.30
2018-07-28T00:23:06.559Z,8.80
2018-07-28T00:24:06.554Z,8.40
2018-07-28T00:25:06.538Z,7.90
2018-07-28T00:26:06.529Z,7.20
2018-07-28T00:27:06.519Z,6.30
2018-07-28T00:28:06.510Z,6.20
2018-07-28T00:29:06.500Z,7.80
2018-07-28T00:30:06.488Z,9.50
2018-07-28T00:31:06.477Z,8.70
2018-07-28T00:32:06.478Z,6.40
2018-07-28T00:33:06.460Z,6.60
2018-07-28T00:34:06.450Z,6.30
2018-07-28T00:35:06.445Z,7.00
2018-07-28T00:36:06.428Z,7.40
2018-07-28T00:37:06.419Z,6.40
2018-07-28T00:38:06.410Z,6.60
2018-07-28T00:39:06.402Z,6.50
2018-07-28T00:40:06.394Z,7.10
2018-07-28T00:41:06.381Z,8.10
2018-07-28T00:42:06.372Z,7.70
2018-07-28T00:43:06.371Z,7.90
2018-07-28T00:44:06.369Z,6.70
2018-07-28T00:45:06.343Z,6.20
2018-07-28T00:46:06.334Z,8.50
2018-07-28T00:47:06.325Z,6.20
2018-07-28T00:48:06.316Z,17.10
2018-07-28T00:49:06.308Z,11.10
2018-07-28T00:50:06.296Z,6.30
2018-07-28T00:51:06.285Z,6.40
2018-07-28T00:52:06.276Z,7.20
2018-07-28T00:53:06.269Z,9.80
2018-07-28T00:54:06.260Z,7.10
2018-07-28T00:55:06.249Z,6.10
2018-07-28T00:56:06.239Z,6.90
2018-07-28T00:57:06.232Z,7.10
2018-07-28T00:58:06.220Z,6.70
2018-07-28T00:59:06.207Z,6.40
2018-07-28T01:00:06.199Z,6.70
2018-07-28T01:01:06.194Z,8.20
2018-07-28T01:02:06.184Z,6.80
2018-07-28T01:03:06.169Z,6.60
2018-07-28T01:04:06.161Z,6.10
2018-07-28T01:05:06.150Z,5.80
2018-07-28T01:06:06.140Z,9.00
2018-07-28T01:07:06.148Z,6.30
2018-07-28T01:08:06.128Z,6.20
2018-07-28T01:09:06.112Z,6.50
2018-07-28T01:10:06.113Z,8.30
2018-07-28T01:11:06.092Z,9.20
2018-07-28T01:12:06.083Z,8.40
2018-07-28T01:13:06.073Z,6.50
2018-07-28T01:14:06.064Z,6.20
2018-07-28T01:15:06.055Z,6.60
2018-07-28T01:16:06.045Z,8.20
2018-07-28T01:17:06.034Z,7.40
2018-07-28T01:18:06.025Z,6.80
2018-07-28T01:19:06.016Z,8.60
2018-07-28T01:20:06.005Z,6.40
2018-07-28T01:21:05.998Z,6.40
2018-07-28T01:22:05.988Z,6.30
2018-07-28T01:23:05.977Z,6.80
2018-07-28T01:24:05.964Z,8.00
2018-07-28T01:25:05.960Z,7.90
2018-07-28T01:26:05.947Z,6.60
2018-07-28T01:27:05.940Z,7.20
2018-07-28T01:28:05.926Z,6.50
2018-07-28T01:29:05.919Z,6.40
2018-07-28T01:30:05.909Z,7.50
2018-07-28T01:31:05.897Z,6.90
2018-07-28T01:32:05.888Z,6.40
2018-07-28T01:33:05.879Z,7.30
2018-07-28T01:34:05.868Z,7.20
2018-07-28T01:35:05.857Z,8.50
2018-07-28T01:36:05.848Z,7.20
2018-07-28T01:37:05.837Z,7.50
2018-07-28T01:38:05.832Z,6.60
2018-07-28T01:39:05.817Z,7.20
2018-07-28T01:40:05.808Z,7.20
2018-07-28T01:41:05.798Z,6.60
2018-07-28T01:42:05.789Z,6.90
2018-07-28T01:43:05.778Z,6.40
2018-07-28T01:44:05.768Z,8.60
2018-07-28T01:45:05.761Z,6.50
2018-07-28T01:46:05.751Z,8.10
2018-07-28T01:47:05.742Z,7.00
2018-07-28T01:48:05.730Z,7.90
2018-07-28T01:49:05.720Z,7.80
2018-07-28T01:50:05.713Z,9.10
2018-07-28T01:51:05.709Z,6.60
2018-07-28T01:52:05.691Z,6.60
2018-07-28T01:53:05.679Z,6.70
2018-07-28T01:54:05.674Z,7.20
2018-07-28T01:55:05.661Z,6.30
2018-07-28T01:56:05.650Z,6.70
2018-07-28T01:57:05.639Z,7.60
2018-07-28T01:58:05.631Z,7.10
2018-07-28T01:59:05.628Z,7.40
2018-07-28T02:00:05.611Z,7.40
2018-07-28T02:01:05.599Z,6.70
2018-07-28T02:02:05.591Z,6.40
2018-07-28T02:03:05.581Z,7.50
2018-07-28T02:04:05.571Z,5.90
2018-07-28T02:05:05.560Z,6.70
2018-07-28T02:06:05.559Z,7.80
2018-07-28T02:07:05.541Z,6.30
2018-07-28T02:08:05.539Z,6.40
2018-07-28T02:09:05.520Z,6.70
2018-07-28T02:10:05.513Z,6.60
2018-07-28T02:11:05.501Z,7.80
2018-07-28T02:12:05.494Z,8.60
2018-07-28T02:13:05.482Z,6.50
2018-07-28T02:14:05.472Z,6.50
2018-07-28T02:15:05.461Z,9.60
2018-07-28T02:16:05.451Z,6.50
2018-07-28T02:17:05.440Z,8.90
2018-07-28T02:18:05.432Z,10.00
2018-07-28T02:19:05.421Z,7.10
2018-07-28T02:20:05.412Z,6.90
2018-07-28T02:21:05.404Z,6.80
2018-07-28T02:22:05.392Z,7.00
2018-07-28T02:23:05.382Z,6.80
2018-07-28T02:24:05.371Z,6.90
2018-07-28T02:25:05.372Z,7.30
2018-07-28T02:26:05.353Z,7.30
2018-07-28T02:27:05.340Z,6.90
2018-07-28T02:28:05.331Z,6.30
2018-07-28T02:29:05.328Z,6.70
2018-07-28T02:30:05.321Z,6.60
2018-07-28T02:31:05.301Z,6.90
2018-07-28T02:32:05.293Z,6.60
2018-07-28T02:33:05.281Z,8.10
2018-07-28T02:34:05.273Z,7.30
2018-07-28T02:35:05.261Z,7.10
2018-07-28T02:36:05.249Z,8.80
2018-07-28T02:37:05.242Z,7.00
2018-07-28T02:38:05.234Z,7.10
2018-07-28T02:39:05.223Z,7.40
2018-07-28T02:40:05.212Z,7.90
2018-07-28T02:41:05.211Z,7.00
2018-07-28T02:42:05.190Z,6.10
2018-07-28T02:43:05.180Z,8.10
2018-07-28T02:44:05.173Z,8.10
2018-07-28T02:45:05.161Z,8.30
2018-07-28T02:46:05.153Z,6.70
2018-07-28T02:47:05.142Z,8.90
2018-07-28T02:48:05.130Z,6.90
2018-07-28T02:49:05.121Z,7.90
2018-07-28T02:50:05.110Z,6.40
2018-07-28T02:51:05.100Z,7.30
2018-07-28T02:52:05.097Z,6.90
2018-07-28T02:53:05.081Z,7.50
2018-07-28T02:54:05.069Z,6.50
2018-07-28T02:55:05.062Z,8.00
2018-07-28T02:56:05.049Z,7.20
2018-07-28T02:57:05.043Z,7.10
2018-07-28T02:58:05.036Z,6.40
2018-07-28T02:59:05.020Z,6.80
2018-07-28T03:00:05.019Z,7.70
2018-07-28T03:01:04.999Z,8.00
2018-07-28T03:02:04.992Z,7.00
2018-07-28T03:03:05.026Z,6.60
2018-07-28T03:04:04.970Z,6.90
2018-07-28T03:05:04.958Z,6.30
2018-07-28T03:06:04.950Z,8.00
2018-07-28T03:07:04.953Z,7.40
2018-07-28T03:08:04.929Z,7.20
2018-07-28T03:09:04.919Z,7.40
2018-07-28T03:10:04.909Z,7.10
2018-07-28T03:11:04.897Z,7.20
2018-07-28T03:12:04.888Z,8.50
2018-07-28T03:13:04.878Z,7.50
2018-07-28T03:14:04.869Z,8.40
2018-07-28T03:15:04.858Z,6.70
2018-07-28T03:16:04.846Z,6.70
2018-07-28T03:17:04.837Z,7.10
2018-07-28T03:18:04.827Z,7.90
2018-07-28T03:19:04.819Z,7.30
2018-07-28T03:20:04.808Z,8.40
2018-07-28T03:21:04.795Z,7.10
2018-07-28T03:22:04.786Z,6.90
2018-07-28T03:23:04.776Z,6.30
2018-07-28T03:24:04.766Z,7.00
2018-07-28T03:25:04.759Z,6.50
2018-07-28T03:26:04.755Z,7.10
2018-07-28T03:27:04.739Z,7.30
2018-07-28T03:28:04.724Z,6.60
2018-07-28T03:29:04.718Z,6.40
2018-07-28T03:30:04.702Z,7.20
2018-07-28T03:31:04.710Z,7.00
2018-07-28T03:32:04.683Z,6.70
2018-07-28T03:33:04.720Z,7.30
2018-07-28T03:34:04.664Z,7.30
2018-07-28T03:35:04.651Z,7.50
2018-07-28T03:36:04.641Z,7.30
2018-07-28T03:37:04.633Z,8.70
2018-07-28T03:38:04.622Z,6.70
2018-07-28T03:39:04.609Z,6.00
2018-07-28T03:40:04.602Z,6.40
2018-07-28T03:41:04.589Z,7.00
2018-07-28T03:42:04.578Z,7.20
2018-07-28T03:43:04.567Z,7.30
2018-07-28T03:44:04.560Z,8.70
2018-07-28T03:45:04.547Z,7.20
2018-07-28T03:46:04.538Z,7.00
2018-07-28T03:47:04.526Z,8.10
2018-07-28T03:48:04.516Z,8.90
2018-07-28T03:49:04.506Z,7.70
2018-07-28T03:50:04.493Z,8.20
2018-07-28T03:51:04.484Z,8.10
2018-07-28T03:52:04.479Z,7.10
2018-07-28T03:53:04.464Z,9.10
2018-07-28T03:54:04.454Z,7.40
2018-07-28T03:55:04.442Z,6.90
2018-07-28T03:56:04.432Z,8.90
2018-07-28T03:57:04.420Z,7.30
2018-07-28T03:58:04.412Z,7.30
2018-07-28T03:59:04.400Z,9.90
2018-07-28T04:00:04.398Z,7.70
2018-07-28T04:01:04.379Z,7.20
2018-07-28T04:02:04.369Z,7.20
2018-07-28T04:03:04.358Z,8.00
2018-07-28T04:04:04.375Z,7.40
2018-07-28T04:05:04.337Z,7.50
2018-07-28T04:06:04.327Z,7.50
2018-07-28T04:07:04.315Z,8.50
2018-07-28T04:08:04.307Z,7.10
2018-07-28T04:09:04.296Z,7.50
2018-07-28T04:10:04.283Z,8.70
2018-07-28T04:11:04.273Z,9.60
2018-07-28T04:12:04.262Z,7.60
2018-07-28T04:13:04.253Z,7.50
2018-07-28T04:14:04.241Z,7.70
2018-07-28T04:15:04.230Z,8.60
2018-07-28T04:16:04.219Z,7.70
2018-07-28T04:17:04.210Z,7.70
2018-07-28T04:18:04.198Z,8.90
2018-07-28T04:19:04.186Z,7.70
2018-07-28T04:20:04.178Z,7.20
2018-07-28T04:21:04.170Z,8.00
2018-07-28T04:22:04.160Z,8.10
2018-07-28T04:23:04.149Z,7.60
2018-07-28T04:24:04.135Z,8.20
2018-07-28T04:25:04.124Z,8.10
2018-07-28T04:26:04.117Z,7.80
2018-07-28T04:27:04.100Z,8.30
2018-07-28T04:28:04.091Z,7.90
2018-07-28T04:29:04.089Z,7.40
2018-07-28T04:30:04.087Z,7.60
2018-07-28T04:31:04.061Z,8.80
2018-07-28T04:32:04.052Z,7.70
2018-07-28T04:33:04.037Z,6.90
2018-07-28T04:34:04.031Z,9.40
2018-07-28T04:35:04.023Z,7.50
2018-07-28T04:36:04.005Z,7.00
2018-07-28T04:37:04.042Z,8.00
2018-07-28T04:38:03.986Z,8.00
2018-07-28T04:39:03.973Z,7.50
2018-07-28T04:40:03.970Z,7.20
2018-07-28T04:41:03.949Z,8.20
2018-07-28T04:42:03.938Z,7.80
2018-07-28T04:43:03.928Z,7.40
2018-07-28T04:44:03.966Z,8.40
2018-07-28T04:45:03.906Z,10.00
2018-07-28T04:46:03.898Z,9.00
2018-07-28T04:47:03.885Z,8.20
2018-07-28T04:48:03.878Z,7.50
2018-07-28T04:49:03.861Z,7.70
2018-07-28T04:50:03.852Z,8.30
2018-07-28T04:51:03.840Z,8.40
2018-07-28T04:52:03.837Z,7.80
2018-07-28T04:53:03.820Z,7.30
2018-07-28T04:54:03.811Z,8.00
2018-07-28T04:55:03.848Z,7.90
2018-07-28T04:56:03.790Z,9.40
2018-07-28T04:57:03.775Z,7.90
2018-07-28T04:58:03.765Z,7.50
2018-07-28T04:59:03.754Z,7.70
2018-07-28T05:00:03.742Z,8.00
2018-07-28T05:01:03.732Z,7.80
2018-07-28T05:02:03.724Z,7.90
2018-07-28T05:03:03.716Z,9.10
2018-07-28T05:04:03.699Z,9.40
2018-07-28T05:05:03.687Z,7.70
2018-07-28T05:06:03.680Z,8.20
2018-07-28T05:07:03.664Z,7.80
2018-07-28T05:08:03.655Z,8.10
2018-07-28T05:09:03.650Z,7.60
2018-07-28T05:10:03.635Z,9.30
2018-07-28T05:11:03.624Z,7.70
2018-07-28T05:12:03.611Z,8.20
2018-07-28T05:13:03.601Z,8.00
2018-07-28T05:14:03.598Z,7.50
2018-07-28T05:15:03.576Z,8.20
2018-07-28T05:16:03.655Z,7.40
2018-07-28T05:17:03.557Z,7.60
2018-07-28T05:18:03.546Z,7.90
2018-07-28T05:19:03.536Z,7.70
2018-07-28T05:20:03.526Z,10.10
2018-07-28T05:21:03.524Z,8.10
2018-07-28T05:22:03.503Z,8.60
2018-07-28T05:23:03.491Z,8.10
2018-07-28T05:24:03.480Z,8.10
2018-07-28T05:25:03.471Z,8.00
2018-07-28T05:26:03.458Z,8.20
2018-07-28T05:27:03.446Z,8.70
2018-07-28T05:28:03.435Z,8.90
2018-07-28T05:29:03.427Z,8.10
2018-07-28T05:30:03.414Z,8.20
2018-07-28T05:31:03.400Z,11.70
2018-07-28T05:32:03.390Z,8.60
2018-07-28T05:33:03.379Z,9.50
2018-07-28T05:34:03.371Z,7.90
2018-07-28T05:35:03.357Z,8.60
2018-07-28T05:36:03.346Z,8.10
2018-07-28T05:37:03.380Z,8.30
2018-07-28T05:38:03.326Z,8.20
2018-07-28T05:39:03.393Z,7.90
2018-07-28T05:40:03.305Z,9.10
2018-07-28T05:41:03.294Z,8.60
2018-07-28T05:42:03.283Z,7.70
2018-07-28T05:43:03.270Z,8.80
2018-07-28T05:44:03.257Z,8.80
2018-07-28T05:45:03.247Z,8.00
2018-07-28T05:46:03.237Z,8.30
2018-07-28T05:47:03.224Z,8.40
2018-07-28T05:48:03.212Z,9.40
2018-07-28T05:49:03.204Z,9.00
2018-07-28T05:50:03.244Z,8.10
2018-07-28T05:51:03.184Z,10.80
2018-07-28T05:52:03.169Z,8.60
2018-07-28T05:53:03.161Z,8.50
2018-07-28T05:54:03.152Z,9.00
2018-07-28T05:55:03.136Z,9.50
2018-07-28T05:56:03.130Z,10.70
2018-07-28T05:57:03.126Z,10.10
2018-07-28T05:58:03.106Z,9.00
2018-07-28T05:59:03.091Z,8.90
2018-07-28T06:00:03.082Z,8.80
2018-07-28T06:01:03.071Z,8.60
2018-07-28T06:02:03.059Z,8.50
2018-07-28T06:03:03.048Z,8.30
2018-07-28T06:04:03.038Z,9.00
2018-07-28T06:05:03.032Z,8.00
2018-07-28T06:06:03.029Z,8.20
2018-07-28T06:07:03.003Z,9.10
2018-07-28T06:08:02.994Z,9.50
2018-07-28T06:09:02.987Z,9.50
2018-07-28T06:10:02.972Z,8.90
2018-07-28T06:11:02.963Z,9.40
2018-07-28T06:12:02.951Z,8.80
2018-07-28T06:13:02.941Z,10.50
2018-07-28T06:14:02.939Z,8.70
2018-07-28T06:15:02.919Z,8.50
2018-07-28T06:16:02.910Z,8.70
2018-07-28T06:17:02.896Z,8.80
2018-07-28T06:18:02.886Z,9.30
2018-07-28T06:19:02.880Z,8.70
2018-07-28T06:20:02.866Z,8.40
2018-07-28T06:21:02.852Z,9.10
2018-07-28T06:22:02.881Z,9.00
2018-07-28T06:23:02.830Z,8.60
2018-07-28T06:24:02.823Z,9.10
2018-07-28T06:25:02.810Z,9.00
2018-07-28T06:26:02.870Z,9.20
2018-07-28T06:27:02.788Z,9.20
2018-07-28T06:28:02.779Z,8.90
2018-07-28T06:29:02.766Z,9.60
2018-07-28T06:30:02.758Z,8.90
2018-07-28T06:31:02.747Z,10.90
2018-07-28T06:32:02.733Z,9.00
2018-07-28T06:33:02.723Z,9.50
2018-07-28T06:34:02.712Z,9.30
2018-07-28T06:35:02.701Z,10.40
2018-07-28T06:36:02.691Z,10.00
2018-07-28T06:37:02.689Z,11.70
2018-07-28T06:38:02.671Z,9.80
2018-07-28T06:39:02.662Z,10.10
2018-07-28T06:40:02.648Z,11.20
2018-07-28T06:41:02.639Z,11.60
2018-07-28T06:42:02.641Z,11.00
2018-07-28T06:43:02.616Z,11.00
2018-07-28T06:44:02.611Z,9.70
2018-07-28T06:45:02.600Z,11.00
2018-07-28T06:46:02.588Z,11.00
2018-07-28T06:47:02.576Z,10.60
2018-07-28T06:48:02.565Z,10.60
2018-07-28T06:49:02.554Z,9.80
2018-07-28T06:50:02.542Z,10.90
2018-07-28T06:51:02.533Z,13.70
2018-07-28T06:52:02.525Z,16.50
2018-07-28T06:53:02.511Z,13.00
2018-07-28T06:54:02.501Z,10.70
2018-07-28T06:55:02.492Z,13.60
2018-07-28T06:56:02.481Z,14.40
2018-07-28T06:57:02.469Z,11.30
2018-07-28T06:58:02.461Z,10.10
2018-07-28T06:59:02.449Z,9.80
2018-07-28T07:00:02.443Z,10.20
2018-07-28T07:01:02.428Z,12.70
2018-07-28T07:02:02.430Z,13.00
2018-07-28T07:03:02.409Z,11.50
2018-07-28T07:04:02.397Z,9.10
2018-07-28T07:05:02.391Z,10.30
2018-07-28T07:06:02.377Z,12.90
2018-07-28T07:07:02.373Z,11.90
2018-07-28T07:08:02.354Z,10.50
2018-07-28T07:09:02.346Z,10.70
2018-07-28T07:10:02.337Z,11.30
2018-07-28T07:11:02.332Z,12.00
2018-07-28T07:12:02.315Z,9.30
2018-07-28T07:13:02.304Z,10.20
2018-07-28T07:14:02.301Z,13.50
2018-07-28T07:15:02.281Z,12.20
2018-07-28T07:16:02.270Z,10.40
2018-07-28T07:17:02.260Z,13.70
2018-07-28T07:18:02.263Z,11.20
2018-07-28T07:19:02.248Z,9.90
2018-07-28T07:20:02.229Z,10.70
2018-07-28T07:21:02.222Z,10.70
2018-07-28T07:22:02.207Z,10.60
2018-07-28T07:23:02.196Z,10.00
2018-07-28T07:24:02.188Z,10.20
2018-07-28T07:25:02.176Z,9.70
2018-07-28T07:26:02.168Z,12.00
2018-07-28T07:27:02.159Z,10.10
2018-07-28T07:28:02.145Z,10.40
2018-07-28T07:29:02.133Z,12.30
2018-07-28T07:30:02.127Z,10.70
2018-07-28T07:31:02.117Z,10.30
2018-07-28T07:32:02.105Z,11.30
2018-07-28T07:33:02.098Z,11.60
2018-07-28T07:34:02.090Z,15.50
2018-07-28T07:35:02.076Z,11.90
2018-07-28T07:36:02.085Z,13.80
2018-07-28T07:37:02.057Z,13.90
2018-07-28T07:38:02.044Z,14.70
2018-07-28T07:39:02.032Z,11.60
2018-07-28T07:40:02.023Z,15.40
2018-07-28T07:41:02.012Z,11.40
2018-07-28T07:42:02.007Z,12.40
2018-07-28T07:43:01.995Z,13.70
2018-07-28T07:44:01.980Z,11.90
2018-07-28T07:45:01.971Z,14.40
2018-07-28T07:46:01.961Z,14.80
2018-07-28T07:47:01.949Z,14.00
2018-07-28T07:48:01.940Z,14.40
2018-07-28T07:49:01.929Z,12.40
2018-07-28T07:50:01.921Z,16.00
2018-07-28T07:51:01.908Z,17.40
2018-07-28T07:52:01.907Z,12.60
2018-07-28T07:53:01.887Z,12.80
2018-07-28T07:54:02.021Z,15.00
2018-07-28T07:55:01.870Z,11.50
2018-07-28T07:56:01.857Z,11.30
2018-07-28T07:57:01.846Z,12.10
2018-07-28T07:58:01.847Z,13.90
2018-07-28T07:59:01.825Z,13.60
2018-07-28T08:00:01.815Z,15.00
2018-07-28T08:01:01.806Z,13.70
2018-07-28T08:02:01.798Z,11.70
2018-07-28T08:03:01.802Z,16.10
2018-07-28T08:04:01.774Z,12.10
2018-07-28T08:05:01.764Z,14.60
2018-07-28T08:06:01.755Z,13.60
2018-07-28T08:07:01.742Z,14.40
2018-07-28T08:08:01.737Z,12.70
2018-07-28T08:09:01.739Z,15.40
2018-07-28T08:10:01.714Z,13.80
2018-07-28T08:11:01.699Z,12.20
2018-07-28T08:12:01.694Z,14.50
2018-07-28T08:13:01.678Z,14.80
2018-07-28T08:14:01.677Z,16.70
2018-07-28T08:15:01.665Z,13.50
2018-07-28T08:16:01.654Z,11.70
2018-07-28T08:17:01.638Z,13.60
2018-07-28T08:18:01.627Z,13.80
2018-07-28T08:19:01.622Z,15.60
2018-07-28T08:20:01.607Z,14.10
2018-07-28T08:21:01.643Z,12.80
2018-07-28T08:22:01.585Z,13.90
2018-07-28T08:23:01.580Z,13.00
2018-07-28T08:24:01.565Z,14.80
2018-07-28T08:25:01.565Z,13.40
2018-07-28T08:26:01.544Z,14.30
2018-07-28T08:27:01.536Z,13.70
2018-07-28T08:28:01.522Z,13.90
2018-07-28T08:29:01.513Z,13.60
2018-07-28T08:30:01.505Z,12.80
2018-07-28T08:31:01.492Z,13.40
2018-07-28T08:32:01.481Z,13.00
2018-07-28T08:33:01.469Z,15.80
2018-07-28T08:34:01.462Z,13.20
2018-07-28T08:35:01.451Z,13.30
2018-07-28T08:36:01.442Z,14.70
2018-07-28T08:37:01.439Z,13.50
2018-07-28T08:38:01.419Z,18.00
2018-07-28T08:39:01.422Z,14.10
2018-07-28T08:40:01.492Z,15.30
2018-07-28T08:41:01.389Z,12.80
2018-07-28T08:42:01.379Z,11.70
2018-07-28T08:43:01.368Z,13.70
2018-07-28T08:44:01.373Z,12.80
2018-07-28T08:45:01.348Z,16.90
2018-07-28T08:46:01.351Z,12.40
2018-07-28T08:47:01.327Z,15.00
2018-07-28T08:48:01.314Z,13.20
2018-07-28T08:49:01.398Z,12.10
2018-07-28T08:50:01.300Z,12.40
2018-07-28T08:51:01.281Z,16.60
2018-07-28T08:52:01.272Z,15.10
2018-07-28T08:53:01.268Z,12.40
2018-07-28T08:54:01.251Z,16.20
2018-07-28T08:55:01.241Z,14.00
2018-07-28T08:56:01.230Z,12.20
2018-07-28T08:57:01.228Z,18.70
2018-07-28T08:58:01.211Z,13.40
2018-07-28T08:59:01.196Z,15.70
2018-07-28T09:00:01.185Z,12.40
2018-07-28T09:01:01.179Z,12.20
2018-07-28T09:02:01.166Z,12.50
2018-07-28T09:03:01.154Z,13.40
2018-07-28T09:04:01.146Z,13.90
2018-07-28T09:05:01.135Z,12.60
2018-07-28T09:06:01.167Z,13.10
2018-07-28T09:07:01.125Z,14.40
2018-07-28T09:08:01.113Z,15.50
2018-07-28T09:09:01.096Z,14.10
2018-07-28T09:10:01.083Z,14.10
2018-07-28T09:11:01.069Z,15.40
2018-07-28T09:12:01.059Z,15.00
2018-07-28T09:13:01.054Z,13.10
2018-07-28T09:14:01.046Z,13.50
2018-07-28T09:15:01.027Z,13.30
2018-07-28T09:16:01.016Z,13.20
2018-07-28T09:17:01.009Z,12.00
2018-07-28T09:18:01.075Z,12.70
2018-07-28T09:19:00.984Z,15.00
2018-07-28T09:20:01.014Z,12.30
2018-07-28T09:22:00.957Z,12.50
2018-07-28T09:23:00.942Z,14.50
2018-07-28T09:24:00.932Z,11.70
2018-07-28T09:25:00.926Z,13.50
2018-07-28T09:26:00.910Z,12.90
2018-07-28T09:27:00.903Z,15.60
2018-07-28T09:28:00.890Z,14.20
2018-07-28T09:29:00.880Z,15.10
2018-07-28T09:30:00.873Z,16.90
2018-07-28T09:31:00.861Z,13.20
2018-07-28T09:32:00.853Z,13.20
2018-07-28T09:33:00.839Z,13.00
2018-07-28T09:34:00.838Z,12.40
2018-07-28T09:35:00.816Z,13.70
2018-07-28T09:36:00.805Z,12.70
2018-07-28T09:37:00.904Z,13.00
2018-07-28T09:38:00.786Z,14.00
2018-07-28T09:39:00.775Z,13.30
2018-07-28T09:40:00.774Z,16.00
2018-07-28T09:41:00.757Z,14.10
2018-07-28T09:42:00.746Z,13.40
2018-07-28T09:43:00.732Z,13.20
2018-07-28T09:44:00.730Z,15.30
2018-07-28T09:45:00.719Z,13.10
2018-07-28T09:46:00.702Z,12.40
2018-07-28T09:47:00.740Z,11.30
2018-07-28T09:48:00.680Z,14.70
2018-07-28T09:49:00.672Z,13.30
2018-07-28T09:50:00.661Z,12.80
2018-07-28T09:51:00.650Z,13.50
2018-07-28T09:52:00.647Z,13.50
2018-07-28T09:53:00.630Z,15.00
2018-07-28T09:54:00.620Z,14.10
2018-07-28T09:55:00.609Z,16.00
2018-07-28T09:56:00.598Z,17.80
2018-07-28T09:57:00.590Z,14.90
2018-07-28T09:58:00.590Z,17.40
2018-07-28T09:59:00.568Z,14.30
2018-07-28T10:00:00.564Z,15.70
2018-07-28T10:01:00.563Z,14.30
2018-07-28T10:02:00.540Z,14.30
2018-07-28T10:03:00.524Z,16.80
2018-07-28T10:04:00.515Z,15.90
2018-07-28T10:05:00.512Z,15.20
2018-07-28T10:06:00.495Z,15.50
2018-07-28T10:07:00.498Z,16.20
2018-07-28T10:08:00.479Z,15.30
2018-07-28T10:09:00.463Z,15.90
2018-07-28T10:10:00.457Z,16.30
2018-07-28T10:11:00.448Z,16.10
2018-07-28T10:12:00.429Z,15.80
2018-07-28T10:13:00.422Z,17.50
2018-07-28T10:14:00.410Z,15.50
2018-07-28T10:15:00.398Z,15.90
2018-07-28T10:16:00.388Z,17.10
2018-07-28T10:17:00.375Z,17.10
2018-07-28T10:18:00.374Z,15.80
2018-07-28T10:19:00.356Z,16.50
2018-07-28T10:20:00.348Z,16.90
2018-07-28T10:21:00.334Z,16.60
2018-07-28T10:22:00.324Z,16.80
2018-07-28T10:23:00.400Z,17.80
2018-07-28T10:24:00.308Z,17.80
2018-07-28T10:25:00.293Z,18.50
2018-07-28T10:26:00.291Z,19.50
2018-07-28T10:27:00.269Z,16.90
2018-07-28T10:28:00.257Z,16.80
2018-07-28T10:29:00.241Z,17.60
2018-07-28T10:30:00.239Z,16.80
2018-07-28T10:31:00.225Z,17.40
2018-07-28T10:32:00.217Z,17.90
2018-07-28T10:33:00.205Z,18.20
2018-07-28T10:34:00.193Z,17.40
2018-07-28T10:35:00.188Z,17.70
2018-07-28T10:36:00.174Z,18.70
2018-07-28T10:37:00.160Z,17.30
2018-07-28T10:38:00.154Z,17.50
2018-07-28T10:39:00.141Z,16.70
2018-07-28T10:40:00.130Z,17.20
2018-07-28T10:41:00.124Z,18.40
2018-07-28T10:42:00.113Z,17.20
2018-07-28T10:43:00.095Z,17.30
2018-07-28T10:44:00.088Z,18.90
2018-07-28T10:45:00.081Z,18.40
2018-07-28T10:46:00.063Z,18.00
2018-07-28T10:47:00.057Z,18.10
2018-07-28T10:48:00.047Z,18.30
2018-07-28T10:49:00.037Z,17.00
2018-07-28T10:50:00.020Z,18.20
2018-07-28T10:51:00.009Z,18.50
2018-07-28T10:52:00.000Z,17.10
2018-07-28T10:53:00.009Z,18.60
2018-07-28T10:53:59.979Z,19.20
2018-07-28T10:54:59.964Z,17.90
2018-07-28T10:55:59.963Z,19.00
2018-07-28T10:56:59.945Z,19.80
2018-07-28T10:57:59.938Z,20.20
2018-07-28T10:58:59.922Z,19.30
2018-07-28T10:59:59.920Z,19.90
2018-07-28T11:00:59.904Z,19.20
2018-07-28T11:01:59.893Z,20.20
2018-07-28T11:02:59.880Z,20.20
2018-07-28T11:03:59.864Z,19.50
2018-07-28T11:04:59.855Z,20.40
2018-07-28T11:05:59.848Z,20.90
2018-07-28T11:06:59.834Z,20.40
2018-07-28T11:07:59.841Z,19.00
2018-07-28T11:08:59.873Z,20.50
2018-07-28T11:09:59.800Z,20.00
2018-07-28T11:10:59.786Z,20.60
2018-07-28T11:11:59.784Z,20.10
2018-07-28T11:12:59.780Z,20.60
2018-07-28T11:13:59.754Z,21.00
2018-07-28T11:14:59.744Z,20.60
2018-07-28T11:15:59.735Z,20.10
2018-07-28T11:16:59.725Z,22.30
2018-07-28T11:17:59.714Z,21.80
2018-07-28T11:18:59.752Z,20.80
2018-07-28T11:19:59.692Z,20.60
2018-07-28T11:20:59.690Z,21.40
2018-07-28T11:21:59.676Z,21.80
2018-07-28T11:22:59.664Z,20.90
2018-07-28T11:23:59.667Z,20.10
2018-07-28T11:24:59.638Z,21.00
2018-07-28T11:25:59.734Z,21.30
2018-07-28T11:26:59.617Z,21.70
2018-07-28T11:27:59.608Z,20.10
2018-07-28T11:28:59.597Z,19.30
2018-07-28T11:29:59.586Z,19.50
2018-07-28T11:30:59.583Z,19.40
2018-07-28T11:31:59.580Z,19.10
2018-07-28T11:32:59.556Z,16.70
2018-07-28T11:33:59.557Z,16.00
2018-07-28T11:34:59.534Z,17.10
2018-07-28T11:35:59.522Z,16.30
2018-07-28T11:36:59.515Z,16.30
2018-07-28T11:37:59.610Z,15.60
2018-07-28T11:38:59.491Z,15.60
2018-07-28T11:39:59.485Z,15.40
2018-07-28T11:40:59.471Z,16.50
2018-07-28T11:41:59.463Z,15.50
2018-07-28T11:42:59.453Z,15.10
2018-07-28T11:43:59.441Z,15.50
2018-07-28T11:44:59.431Z,15.90
2018-07-28T11:45:59.590Z,15.30
2018-07-28T11:46:59.406Z,15.90
2018-07-28T11:47:59.401Z,15.10
2018-07-28T11:48:59.386Z,14.90
2018-07-28T11:49:59.376Z,15.60
2018-07-28T11:50:59.365Z,16.10
2018-07-28T11:51:59.354Z,16.10
2018-07-28T11:52:59.345Z,15.50
2018-07-28T11:53:59.338Z,15.90
2018-07-28T11:54:59.323Z,15.10
2018-07-28T11:55:59.315Z,15.10
2018-07-28T11:56:59.308Z,15.80
2018-07-28T11:57:59.329Z,14.80
2018-07-28T11:58:59.282Z,14.30
2018-07-28T11:59:59.271Z,14.00
2018-07-28T12:00:59.271Z,13.90
2018-07-28T12:01:59.252Z,13.40
2018-07-28T12:02:59.543Z,14.30
2018-07-28T12:03:59.233Z,12.80
2018-07-28T12:04:59.221Z,14.00
2018-07-28T12:05:59.221Z,13.30
2018-07-28T12:06:59.202Z,13.90
2018-07-28T12:07:59.191Z,13.60
2018-07-28T12:08:59.183Z,13.00
2018-07-28T12:09:59.169Z,13.40
2018-07-28T12:10:59.164Z,13.00
2018-07-28T12:11:59.151Z,13.10
2018-07-28T12:12:59.142Z,11.60
2018-07-28T12:13:59.152Z,12.10
2018-07-28T12:14:59.128Z,12.50
2018-07-28T12:15:59.110Z,12.10
2018-07-28T12:16:59.112Z,12.30
2018-07-28T12:17:59.101Z,12.10
2018-07-28T12:18:59.080Z,11.60
2018-07-28T12:19:59.073Z,11.40
2018-07-28T12:20:59.061Z,12.90
2018-07-28T12:21:59.054Z,12.40
2018-07-28T12:22:59.046Z,13.00
2018-07-28T12:23:59.120Z,11.90
2018-07-28T12:24:59.035Z,12.80
2018-07-28T12:25:59.014Z,13.30
2018-07-28T12:26:59.004Z,13.40
2018-07-28T12:27:58.998Z,12.40
2018-07-28T12:28:58.996Z,12.70
2018-07-28T12:29:58.975Z,11.80
2018-07-28T12:30:58.970Z,11.30
2018-07-28T12:31:58.954Z,13.20
2018-07-28T12:32:58.944Z,11.50
2018-07-28T12:33:58.932Z,10.50
2018-07-28T12:34:59.032Z,10.30
2018-07-28T12:35:58.916Z,9.30
2018-07-28T12:36:58.903Z,10.40
2018-07-28T12:37:58.896Z,10.70
2018-07-28T12:38:58.893Z,11.90
2018-07-28T12:39:58.876Z,10.70
2018-07-28T12:40:58.914Z,9.50
2018-07-28T12:41:58.855Z,10.30
2018-07-28T12:42:58.861Z,10.70
2018-07-28T12:43:58.839Z,9.00
2018-07-28T12:44:58.825Z,9.30
2018-07-28T12:45:58.832Z,9.00
2018-07-28T12:46:58.808Z,8.80
2018-07-28T12:47:58.800Z,8.30
2018-07-28T12:48:58.785Z,8.00
2018-07-28T12:49:58.775Z,8.50
2018-07-28T12:50:58.785Z,9.60
2018-07-28T12:51:58.759Z,9.40
2018-07-28T12:52:58.759Z,8.40
2018-07-28T12:53:58.751Z,9.30
2018-07-28T12:54:58.741Z,9.40
2018-07-28T12:55:58.721Z,11.70
2018-07-28T12:56:58.711Z,10.50
2018-07-28T12:57:58.710Z,10.10
2018-07-28T12:58:58.693Z,10.50
2018-07-28T12:59:58.681Z,10.20
2018-07-28T13:00:58.685Z,12.30
2018-07-28T13:01:58.682Z,12.80
2018-07-28T13:02:58.663Z,10.40
2018-07-28T13:03:58.654Z,10.50
2018-07-28T13:04:58.632Z,10.50
2018-07-28T13:05:58.623Z,10.00